sensor_id;sensor_type;location;lat;lon;timestamp;pressure;altitude;pressure_sealevel;temperature;humidity
53932;BME280;39844;52.496;13.482;2023-10-08T00:01:21;101561.81;;;12.15;100.00
53932;BME280;39844;52.496;13.482;2023-10-08T00:03:47;101563.56;;;12.19;100.00
53932;BME280;39844;52.496;13.482;2023-10-08T00:06:12;101576.72;;;12.22;100.00
53932;BME280;39844;52.496;13.482;2023-10-08T00:08:38;101589.88;;;12.19;100.00
53932;BME280;39844;52.496;13.482;2023-10-08T00:11:03;101596.91;;;12.20;100.00
53932;BME280;39844;52.496;13.482;2023-10-08T00:13:28;101588.13;;;12.21;100.00
53932;BME280;39844;52.496;13.482;2023-10-08T00:15:54;101574.97;;;12.21;100.00
53932;BME280;39844;52.496;13.482;2023-10-08T00:18:20;101586.38;;;12.17;100.00
53932;BME280;39844;52.496;13.482;2023-10-08T00:20:45;101588.09;;;12.18;100.00
53932;BME280;39844;52.496;13.482;2023-10-08T00:23:10;101583.72;;;12.16;100.00
53932;BME280;39844;52.496;13.482;2023-10-08T00:25:36;101588.09;;;12.18;100.00
53932;BME280;39844;52.496;13.482;2023-10-08T00:28:02;101598.66;;;12.15;100.00
53932;BME280;39844;52.496;13.482;2023-10-08T00:30:27;101593.34;;;12.14;100.00
53932;BME280;39844;52.496;13.482;2023-10-08T00:32:52;101592.47;;;12.13;100.00
53932;BME280;39844;52.496;13.482;2023-10-08T00:35:18;101581.09;;;12.14;100.00
53932;BME280;39844;52.496;13.482;2023-10-08T00:37:43;101594.25;;;12.17;100.00
53932;BME280;39844;52.496;13.482;2023-10-08T00:40:09;101596.88;;;12.13;100.00
53932;BME280;39844;52.496;13.482;2023-10-08T00:42:34;101599.50;;;12.14;100.00
53932;BME280;39844;52.496;13.482;2023-10-08T00:44:59;101603.00;;;12.13;100.00
53932;BME280;39844;52.496;13.482;2023-10-08T00:47:25;101612.66;;;12.11;100.00
53932;BME280;39844;52.496;13.482;2023-10-08T00:49:51;101624.94;;;12.12;100.00
53932;BME280;39844;52.496;13.482;2023-10-08T00:52:18;101624.03;;;12.09;100.00
53932;BME280;39844;52.496;13.482;2023-10-08T00:54:44;101620.53;;;12.08;100.00
53932;BME280;39844;52.496;13.482;2023-10-08T00:57:09;101621.44;;;12.12;100.00
53932;BME280;39844;52.496;13.482;2023-10-08T00:59:35;101626.69;;;12.09;100.00
53932;BME280;39844;52.496;13.482;2023-10-08T01:02:00;101628.41;;;12.08;100.00
53932;BME280;39844;52.496;13.482;2023-10-08T01:04:26;101628.44;;;12.05;100.00
53932;BME280;39844;52.496;13.482;2023-10-08T01:06:54;101633.69;;;12.02;100.00
53932;BME280;39844;52.496;13.482;2023-10-08T01:09:19;101629.28;;;11.99;100.00
53932;BME280;39844;52.496;13.482;2023-10-08T01:11:45;101626.63;;;11.98;100.00
53932;BME280;39844;52.496;13.482;2023-10-08T01:14:10;101618.72;;;11.96;100.00
53932;BME280;39844;52.496;13.482;2023-10-08T01:16:35;101624.00;;;11.96;100.00
53932;BME280;39844;52.496;13.482;2023-10-08T01:19:00;101631.88;;;11.98;100.00
53932;BME280;39844;52.496;13.482;2023-10-08T01:21:29;101636.28;;;12.00;100.00
53932;BME280;39844;52.496;13.482;2023-10-08T01:23:54;101643.28;;;12.00;100.00
53932;BME280;39844;52.496;13.482;2023-10-08T01:26:20;101652.06;;;11.97;100.00
53932;BME280;39844;52.496;13.482;2023-10-08T01:28:46;101645.94;;;12.01;100.00
53932;BME280;39844;52.496;13.482;2023-10-08T01:31:11;101644.19;;;11.99;100.00
53932;BME280;39844;52.496;13.482;2023-10-08T01:33:36;101642.41;;;11.96;100.00
53932;BME280;39844;52.496;13.482;2023-10-08T01:36:01;101651.16;;;11.95;100.00
53932;BME280;39844;52.496;13.482;2023-10-08T01:38:28;101652.94;;;11.98;100.00
53932;BME280;39844;52.496;13.482;2023-10-08T01:40:54;101659.97;;;11.99;100.00
53932;BME280;39844;52.496;13.482;2023-10-08T01:43:20;101652.06;;;11.99;100.00
53932;BME280;39844;52.496;13.482;2023-10-08T01:45:45;101658.22;;;11.99;100.00
53932;BME280;39844;52.496;13.482;2023-10-08T01:48:10;101667.88;;;12.02;100.00
53932;BME280;39844;52.496;13.482;2023-10-08T01:50:39;101659.97;;;11.99;100.00
53932;BME280;39844;52.496;13.482;2023-10-08T01:53:04;101665.22;;;11.99;100.00
53932;BME280;39844;52.496;13.482;2023-10-08T01:55:30;101672.22;;;12.00;100.00
53932;BME280;39844;52.496;13.482;2023-10-08T01:57:55;101694.16;;;11.96;100.00
53932;BME280;39844;52.496;13.482;2023-10-08T02:00:20;101687.97;;;11.91;100.00
53932;BME280;39844;52.496;13.482;2023-10-08T02:02:46;101691.47;;;11.90;100.00
53932;BME280;39844;52.496;13.482;2023-10-08T02:05:12;101701.13;;;11.91;100.00
53932;BME280;39844;52.496;13.482;2023-10-08T02:07:37;101687.97;;;11.91;100.00
53932;BME280;39844;52.496;13.482;2023-10-08T02:10:03;101688.88;;;11.91;100.00
53932;BME280;39844;52.496;13.482;2023-10-08T02:12:28;101688.00;;;11.95;100.00
53932;BME280;39844;52.496;13.482;2023-10-08T02:14:53;101695.00;;;11.95;100.00
53932;BME280;39844;52.496;13.482;2023-10-08T02:17:19;101702.91;;;11.95;100.00
53932;BME280;39844;52.496;13.482;2023-10-08T02:19:44;101701.13;;;11.92;100.00
53932;BME280;39844;52.496;13.482;2023-10-08T02:22:09;101709.88;;;11.90;100.00
53932;BME280;39844;52.496;13.482;2023-10-08T02:24:35;101721.31;;;11.93;100.00
53932;BME280;39844;52.496;13.482;2023-10-08T02:27:00;101729.25;;;11.98;100.00
53932;BME280;39844;52.496;13.482;2023-10-08T02:29:28;101735.38;;;12.00;100.00
53932;BME280;39844;52.496;13.482;2023-10-08T02:31:53;101738.03;;;11.98;100.00
53932;BME280;39844;52.496;13.482;2023-10-08T02:34:19;101761.69;;;11.94;100.00
53932;BME280;39844;52.496;13.482;2023-10-08T02:36:48;101766.91;;;11.89;100.00
53932;BME280;39844;52.496;13.482;2023-10-08T02:39:16;101766.03;;;11.90;100.00
53932;BME280;39844;52.496;13.482;2023-10-08T02:41:45;101764.28;;;11.89;100.00
53932;BME280;39844;52.496;13.482;2023-10-08T02:44:11;101755.47;;;11.86;100.00
53932;BME280;39844;52.496;13.482;2023-10-08T02:46:36;101754.63;;;11.87;100.00
53932;BME280;39844;52.496;13.482;2023-10-08T02:49:01;101752.88;;;11.89;100.00
53932;BME280;39844;52.496;13.482;2023-10-08T02:51:27;101755.50;;;11.89;100.00
53932;BME280;39844;52.496;13.482;2023-10-08T02:53:52;101760.78;;;11.90;100.00
53932;BME280;39844;52.496;13.482;2023-10-08T02:56:17;101754.59;;;11.84;100.00
53932;BME280;39844;52.496;13.482;2023-10-08T02:58:43;101758.97;;;11.83;100.00
53932;BME280;39844;52.496;13.482;2023-10-08T03:01:08;101755.47;;;11.87;100.00
53932;BME280;39844;52.496;13.482;2023-10-08T03:03:33;101755.47;;;11.84;100.00
53932;BME280;39844;52.496;13.482;2023-10-08T03:05:58;101759.84;;;11.84;100.00
53932;BME280;39844;52.496;13.482;2023-10-08T03:08:24;101750.19;;;11.81;100.00
53932;BME280;39844;52.496;13.482;2023-10-08T03:10:50;101751.09;;;11.82;100.00
53932;BME280;39844;52.496;13.482;2023-10-08T03:13:16;101761.59;;;11.82;100.00
53932;BME280;39844;52.496;13.482;2023-10-08T03:15:42;101754.59;;;11.84;100.00
53932;BME280;39844;52.496;13.482;2023-10-08T03:18:08;101753.72;;;11.82;100.00
53932;BME280;39844;52.496;13.482;2023-10-08T03:20:34;101771.25;;;11.83;100.00
53932;BME280;39844;52.496;13.482;2023-10-08T03:23:00;101775.59;;;11.82;100.00
53932;BME280;39844;52.496;13.482;2023-10-08T03:25:25;101774.78;;;11.86;100.00
53932;BME280;39844;52.496;13.482;2023-10-08T03:27:50;101773.03;;;11.90;100.00
53932;BME280;39844;52.496;13.482;2023-10-08T03:30:16;101765.16;;;11.93;100.00
53932;BME280;39844;52.496;13.482;2023-10-08T03:32:42;101781.00;;;11.96;100.00
53932;BME280;39844;52.496;13.482;2023-10-08T03:35:08;101780.06;;;11.92;100.00
53932;BME280;39844;52.496;13.482;2023-10-08T03:37:33;101800.28;;;11.92;100.00
53932;BME280;39844;52.496;13.482;2023-10-08T03:39:58;101804.63;;;11.93;100.00
53932;BME280;39844;52.496;13.482;2023-10-08T03:42:24;101811.66;;;11.89;100.00
53932;BME280;39844;52.496;13.482;2023-10-08T03:44:50;101800.22;;;11.86;100.00
53932;BME280;39844;52.496;13.482;2023-10-08T03:47:16;101806.28;;;11.80;100.00
53932;BME280;39844;52.496;13.482;2023-10-08T03:49:41;101813.25;;;11.75;100.00
53932;BME280;39844;52.496;13.482;2023-10-08T03:52:06;101830.81;;;11.78;100.00
53932;BME280;39844;52.496;13.482;2023-10-08T03:54:32;101836.97;;;11.77;100.00
53932;BME280;39844;52.496;13.482;2023-10-08T03:56:57;101843.06;;;11.73;100.00
53932;BME280;39844;52.496;13.482;2023-10-08T03:59:22;101857.06;;;11.70;100.00
53932;BME280;39844;52.496;13.482;2023-10-08T04:01:47;101858.84;;;11.73;100.00
53932;BME280;39844;52.496;13.482;2023-10-08T04:04:13;101848.34;;;11.77;100.00
53932;BME280;39844;52.496;13.482;2023-10-08T04:06:38;101862.38;;;11.78;100.00
53932;BME280;39844;52.496;13.482;2023-10-08T04:09:05;101870.28;;;11.78;100.00
53932;BME280;39844;52.496;13.482;2023-10-08T04:11:30;101863.28;;;11.77;100.00
53932;BME280;39844;52.496;13.482;2023-10-08T04:13:55;101863.22;;;11.72;100.00
53932;BME280;39844;52.496;13.482;2023-10-08T04:16:21;101854.44;;;11.69;100.00
53932;BME280;39844;52.496;13.482;2023-10-08T04:18:47;101847.34;;;11.66;100.00
53932;BME280;39844;52.496;13.482;2023-10-08T04:21:12;101863.94;;;11.62;100.00
53932;BME280;39844;52.496;13.482;2023-10-08T04:23:37;101878.88;;;11.62;100.00
53932;BME280;39844;52.496;13.482;2023-10-08T04:26:02;101891.13;;;11.63;100.00
53932;BME280;39844;52.496;13.482;2023-10-08T04:28:28;101896.44;;;11.66;100.00
53932;BME280;39844;52.496;13.482;2023-10-08T04:30:53;101896.44;;;11.66;100.00
53932;BME280;39844;52.496;13.482;2023-10-08T04:33:18;101910.47;;;11.66;100.00
53932;BME280;39844;52.496;13.482;2023-10-08T04:35:45;101913.06;;;11.65;100.00
53932;BME280;39844;52.496;13.482;2023-10-08T04:38:10;101923.59;;;11.63;100.00
53932;BME280;39844;52.496;13.482;2023-10-08T04:40:35;101933.19;;;11.58;100.00
53932;BME280;39844;52.496;13.482;2023-10-08T04:43:01;101931.44;;;11.59;100.00
53932;BME280;39844;52.496;13.482;2023-10-08T04:45:26;101916.50;;;11.56;100.00
53932;BME280;39844;52.496;13.482;2023-10-08T04:47:51;101916.47;;;11.55;100.00
53932;BME280;39844;52.496;13.482;2023-10-08T04:50:16;101919.97;;;11.54;100.00
53932;BME280;39844;52.496;13.482;2023-10-08T04:52:42;101922.63;;;11.54;100.00
53932;BME280;39844;52.496;13.482;2023-10-08T04:55:07;101919.94;;;11.51;100.00
53932;BME280;39844;52.496;13.482;2023-10-08T04:57:32;101924.31;;;11.49;100.00
53932;BME280;39844;52.496;13.482;2023-10-08T04:59:58;101930.38;;;11.44;100.00
53932;BME280;39844;52.496;13.482;2023-10-08T05:02:23;101920.69;;;11.40;100.00
53932;BME280;39844;52.496;13.482;2023-10-08T05:04:50;101932.91;;;11.35;100.00
53932;BME280;39844;52.496;13.482;2023-10-08T05:07:16;101946.00;;;11.34;100.00
53932;BME280;39844;52.496;13.482;2023-10-08T05:09:41;101957.38;;;11.30;100.00
53932;BME280;39844;52.496;13.482;2023-10-08T05:12:06;101966.09;;;11.27;100.00
53932;BME280;39844;52.496;13.482;2023-10-08T05:14:32;101973.13;;;11.28;100.00
53932;BME280;39844;52.496;13.482;2023-10-08T05:17:07;101971.41;;;11.30;100.00
53932;BME280;39844;52.496;13.482;2023-10-08T05:19:32;101971.34;;;11.27;100.00
53932;BME280;39844;52.496;13.482;2023-10-08T05:21:57;101971.31;;;11.24;100.00
53932;BME280;39844;52.496;13.482;2023-10-08T05:24:23;101972.19;;;11.23;100.00
53932;BME280;39844;52.496;13.482;2023-10-08T05:26:48;101984.44;;;11.24;100.00
53932;BME280;39844;52.496;13.482;2023-10-08T05:29:13;101999.38;;;11.25;100.00
53932;BME280;39844;52.496;13.482;2023-10-08T05:31:38;102002.00;;;11.25;100.00
53932;BME280;39844;52.496;13.482;2023-10-08T05:34:04;102004.63;;;11.25;100.00
53932;BME280;39844;52.496;13.482;2023-10-08T05:36:29;101997.53;;;11.21;100.00
53932;BME280;39844;52.496;13.482;2023-10-08T05:38:55;102008.03;;;11.18;100.00
53932;BME280;39844;52.496;13.482;2023-10-08T05:41:20;102015.88;;;11.17;100.00
53932;BME280;39844;52.496;13.482;2023-10-08T05:43:45;102015.94;;;11.18;100.00
53932;BME280;39844;52.496;13.482;2023-10-08T05:46:15;102027.34;;;11.20;100.00
53932;BME280;39844;52.496;13.482;2023-10-08T05:48:40;102022.03;;;11.19;100.00
53932;BME280;39844;52.496;13.482;2023-10-08T05:51:06;102036.03;;;11.16;100.00
53932;BME280;39844;52.496;13.482;2023-10-08T05:53:32;102034.22;;;11.12;100.00
53932;BME280;39844;52.496;13.482;2023-10-08T05:56:04;102027.22;;;11.14;100.00
53932;BME280;39844;52.496;13.482;2023-10-08T05:58:29;102022.94;;;11.19;100.00
53932;BME280;39844;52.496;13.482;2023-10-08T06:00:55;102029.97;;;11.20;100.00
53932;BME280;39844;52.496;13.482;2023-10-08T06:03:20;102057.19;;;11.25;100.00
53932;BME280;39844;52.496;13.482;2023-10-08T06:05:45;102055.47;;;11.29;100.00
53932;BME280;39844;52.496;13.482;2023-10-08T06:08:10;102058.19;;;11.33;100.00
53932;BME280;39844;52.496;13.482;2023-10-08T06:10:36;102081.81;;;11.30;100.00
53932;BME280;39844;52.496;13.482;2023-10-08T06:15:38;102091.38;;;11.25;100.00
53932;BME280;39844;52.496;13.482;2023-10-08T06:18:04;102091.31;;;11.21;100.00
53932;BME280;39844;52.496;13.482;2023-10-08T06:20:29;102104.47;;;11.22;100.00
53932;BME280;39844;52.496;13.482;2023-10-08T06:22:55;102107.94;;;11.21;100.00
53932;BME280;39844;52.496;13.482;2023-10-08T06:25:20;102129.13;;;11.30;100.00
53932;BME280;39844;52.496;13.482;2023-10-08T06:27:45;102131.94;;;11.41;100.00
53932;BME280;39844;52.496;13.482;2023-10-08T06:30:12;102117.16;;;11.51;100.00
53932;BME280;39844;52.496;13.482;2023-10-08T06:32:37;102120.75;;;11.56;100.00
53932;BME280;39844;52.496;13.482;2023-10-08T06:35:03;102131.25;;;11.54;100.00
53932;BME280;39844;52.496;13.482;2023-10-08T06:37:28;102137.41;;;11.56;100.00
53932;BME280;39844;52.496;13.482;2023-10-08T06:39:54;102138.31;;;11.60;100.00
53932;BME280;39844;52.496;13.482;2023-10-08T06:42:19;102136.56;;;11.59;100.00
53932;BME280;39844;52.496;13.482;2023-10-08T06:44:44;102137.47;;;11.61;100.00
53932;BME280;39844;52.496;13.482;2023-10-08T06:47:10;102148.88;;;11.63;100.00
53932;BME280;39844;52.496;13.482;2023-10-08T06:49:35;102154.16;;;11.63;100.00
53932;BME280;39844;52.496;13.482;2023-10-08T06:52:01;102155.94;;;11.64;100.00
53932;BME280;39844;52.496;13.482;2023-10-08T06:54:27;102166.47;;;11.65;100.00
53932;BME280;39844;52.496;13.482;2023-10-08T06:56:52;102176.09;;;11.65;100.00
53932;BME280;39844;52.496;13.482;2023-10-08T06:59:18;102171.72;;;11.64;100.00
53932;BME280;39844;52.496;13.482;2023-10-08T07:01:44;102177.81;;;11.61;100.00
53932;BME280;39844;52.496;13.482;2023-10-08T07:04:09;102168.06;;;11.56;100.00
53932;BME280;39844;52.496;13.482;2023-10-08T07:06:34;102175.13;;;11.60;100.00
53932;BME280;39844;52.496;13.482;2023-10-08T07:09:01;102178.66;;;11.59;100.00
53932;BME280;39844;52.496;13.482;2023-10-08T07:11:26;102179.50;;;11.56;100.00
53932;BME280;39844;52.496;13.482;2023-10-08T07:13:52;102185.53;;;11.51;100.00
53932;BME280;39844;52.496;13.482;2023-10-08T07:16:18;102193.41;;;11.49;100.00
53932;BME280;39844;52.496;13.482;2023-10-08T07:18:44;102203.94;;;11.49;100.00
53932;BME280;39844;52.496;13.482;2023-10-08T07:21:09;102204.78;;;11.50;100.00
53932;BME280;39844;52.496;13.482;2023-10-08T07:23:34;102210.03;;;11.48;100.00
53932;BME280;39844;52.496;13.482;2023-10-08T07:26:01;102207.34;;;11.47;100.00
53932;BME280;39844;52.496;13.482;2023-10-08T07:28:27;102218.69;;;11.42;100.00
53932;BME280;39844;52.496;13.482;2023-10-08T07:30:53;102216.97;;;11.44;100.00
53932;BME280;39844;52.496;13.482;2023-10-08T07:33:18;102218.72;;;11.44;100.00
53932;BME280;39844;52.496;13.482;2023-10-08T07:35:47;102223.13;;;11.45;100.00
53932;BME280;39844;52.496;13.482;2023-10-08T07:38:13;102222.25;;;11.44;100.00
53932;BME280;39844;52.496;13.482;2023-10-08T07:40:38;102222.28;;;11.48;100.00
53932;BME280;39844;52.496;13.482;2023-10-08T07:43:03;102232.81;;;11.48;100.00
53932;BME280;39844;52.496;13.482;2023-10-08T07:45:28;102232.88;;;11.51;100.00
53932;BME280;39844;52.496;13.482;2023-10-08T07:47:54;102233.75;;;11.51;100.00
53932;BME280;39844;52.496;13.482;2023-10-08T07:50:19;102241.59;;;11.50;100.00
53932;BME280;39844;52.496;13.482;2023-10-08T07:52:44;102247.81;;;11.53;100.00
53932;BME280;39844;52.496;13.482;2023-10-08T07:55:10;102252.19;;;11.53;99.79
53932;BME280;39844;52.496;13.482;2023-10-08T07:57:35;102246.09;;;11.55;99.96
53932;BME280;39844;52.496;13.482;2023-10-08T08:00:01;102249.59;;;11.56;98.90
53932;BME280;39844;52.496;13.482;2023-10-08T08:02:26;102249.59;;;11.56;98.41
53932;BME280;39844;52.496;13.482;2023-10-08T08:04:52;102254.91;;;11.59;97.73
53932;BME280;39844;52.496;13.482;2023-10-08T08:07:20;102263.72;;;11.61;97.75
53932;BME280;39844;52.496;13.482;2023-10-08T08:09:48;102269.03;;;11.64;96.68
53932;BME280;39844;52.496;13.482;2023-10-08T08:12:14;102262.88;;;11.62;93.98
53932;BME280;39844;52.496;13.482;2023-10-08T08:14:39;102267.16;;;11.57;90.94
53932;BME280;39844;52.496;13.482;2023-10-08T08:17:05;102271.66;;;11.64;92.81
53932;BME280;39844;52.496;13.482;2023-10-08T08:19:30;102276.97;;;11.67;92.46
53932;BME280;39844;52.496;13.482;2023-10-08T08:21:56;102271.72;;;11.67;91.49
53932;BME280;39844;52.496;13.482;2023-10-08T08:24:21;102282.19;;;11.64;89.64
53932;BME280;39844;52.496;13.482;2023-10-08T08:26:46;102285.72;;;11.64;89.40
53932;BME280;39844;52.496;13.482;2023-10-08T08:29:11;102283.91;;;11.62;87.45
53932;BME280;39844;52.496;13.482;2023-10-08T08:31:37;102282.25;;;11.67;90.50
53932;BME280;39844;52.496;13.482;2023-10-08T08:34:03;102290.25;;;11.71;91.48
53932;BME280;39844;52.496;13.482;2023-10-08T08:36:29;102292.03;;;11.75;92.83
53932;BME280;39844;52.496;13.482;2023-10-08T08:38:55;102288.59;;;11.78;93.33
53932;BME280;39844;52.496;13.482;2023-10-08T08:41:21;102296.53;;;11.79;94.56
53932;BME280;39844;52.496;13.482;2023-10-08T08:43:48;102297.34;;;11.77;93.34
53932;BME280;39844;52.496;13.482;2023-10-08T08:46:13;102313.97;;;11.76;91.48
53932;BME280;39844;52.496;13.482;2023-10-08T08:48:41;102313.16;;;11.78;92.99
53932;BME280;39844;52.496;13.482;2023-10-08T08:51:07;102312.38;;;11.84;94.25
53932;BME280;39844;52.496;13.482;2023-10-08T08:53:33;102312.31;;;11.82;91.13
53932;BME280;39844;52.496;13.482;2023-10-08T08:56:00;102314.88;;;11.76;85.70
53932;BME280;39844;52.496;13.482;2023-10-08T08:58:26;102321.94;;;11.79;87.24
53932;BME280;39844;52.496;13.482;2023-10-08T09:00:52;102319.38;;;11.85;86.56
53932;BME280;39844;52.496;13.482;2023-10-08T09:03:18;102325.66;;;11.91;89.20
53932;BME280;39844;52.496;13.482;2023-10-08T09:05:43;102324.88;;;11.97;89.97
53932;BME280;39844;52.496;13.482;2023-10-08T09:08:11;102330.16;;;11.98;88.93
53932;BME280;39844;52.496;13.482;2023-10-08T09:10:38;102331.00;;;11.97;88.47
53932;BME280;39844;52.496;13.482;2023-10-08T09:13:05;102331.81;;;11.95;87.16
53932;BME280;39844;52.496;13.482;2023-10-08T09:15:31;102330.09;;;11.95;85.46
53932;BME280;39844;52.496;13.482;2023-10-08T09:17:57;102333.63;;;11.96;83.86
53932;BME280;39844;52.496;13.482;2023-10-08T09:20:22;102335.28;;;11.92;81.86
53932;BME280;39844;52.496;13.482;2023-10-08T09:23:11;102336.25;;;11.97;80.38
53932;BME280;39844;52.496;13.482;2023-10-08T09:25:36;102333.72;;;12.02;83.21
53932;BME280;39844;52.496;13.482;2023-10-08T09:28:02;102345.13;;;12.02;79.19
53932;BME280;39844;52.496;13.482;2023-10-08T09:30:30;102337.38;;;12.10;81.68
53932;BME280;39844;52.496;13.482;2023-10-08T09:32:57;102340.97;;;12.18;83.25
53932;BME280;39844;52.496;13.482;2023-10-08T09:35:24;102342.66;;;12.13;75.50
53932;BME280;39844;52.496;13.482;2023-10-08T09:37:50;102339.13;;;12.11;71.87
53932;BME280;39844;52.496;13.482;2023-10-08T09:40:17;102340.03;;;12.13;69.02
53932;BME280;39844;52.496;13.482;2023-10-08T09:42:44;102341.84;;;12.17;67.31
53932;BME280;39844;52.496;13.482;2023-10-08T09:45:10;102351.63;;;12.24;67.40
53932;BME280;39844;52.496;13.482;2023-10-08T09:47:38;102343.84;;;12.32;67.47
53932;BME280;39844;52.496;13.482;2023-10-08T09:50:07;102339.56;;;12.41;70.90
53932;BME280;39844;52.496;13.482;2023-10-08T09:55:12;102354.47;;;12.39;64.20
53932;BME280;39844;52.496;13.482;2023-10-08T09:57:38;102358.00;;;12.41;63.98
53932;BME280;39844;52.496;13.482;2023-10-08T10:00:05;102358.97;;;12.46;66.36
53932;BME280;39844;52.496;13.482;2023-10-08T10:02:32;102359.13;;;12.55;68.97
53932;BME280;39844;52.496;13.482;2023-10-08T10:04:57;102362.50;;;12.48;62.38
53932;BME280;39844;52.496;13.482;2023-10-08T10:07:25;102359.84;;;12.47;60.73
53932;BME280;39844;52.496;13.482;2023-10-08T10:09:51;102371.13;;;12.38;57.18
53932;BME280;39844;52.496;13.482;2023-10-08T10:12:25;102370.28;;;12.41;54.86
53932;BME280;39844;52.496;13.482;2023-10-08T10:14:53;102367.75;;;12.48;57.87
53932;BME280;39844;52.496;13.482;2023-10-08T10:17:25;102365.22;;;12.53;55.08
53932;BME280;39844;52.496;13.482;2023-10-08T10:19:59;102365.34;;;12.60;55.49
53932;BME280;39844;52.496;13.482;2023-10-08T10:22:33;102357.50;;;12.66;56.16
53932;BME280;39844;52.496;13.482;2023-10-08T10:24:59;102360.22;;;12.74;58.67
53932;BME280;39844;52.496;13.482;2023-10-08T10:27:25;102367.34;;;12.78;58.96
53932;BME280;39844;52.496;13.482;2023-10-08T10:29:50;102360.22;;;12.74;55.35
53932;BME280;39844;52.496;13.482;2023-10-08T10:32:16;102355.94;;;12.81;56.47
53932;BME280;39844;52.496;13.482;2023-10-08T10:34:43;102364.84;;;12.89;56.43
53932;BME280;39844;52.496;13.482;2023-10-08T10:37:08;102364.94;;;12.99;57.81
53932;BME280;39844;52.496;13.482;2023-10-08T10:39:34;102370.31;;;13.04;57.10
53932;BME280;39844;52.496;13.482;2023-10-08T10:42:01;102373.03;;;13.10;58.42
53932;BME280;39844;52.496;13.482;2023-10-08T10:44:30;102372.19;;;13.12;54.99
53932;BME280;39844;52.496;13.482;2023-10-08T10:46:57;102375.81;;;13.20;56.02
53932;BME280;39844;52.496;13.482;2023-10-08T10:49:22;102374.13;;;13.27;56.28
53932;BME280;39844;52.496;13.482;2023-10-08T10:51:49;102379.38;;;13.25;54.30
53932;BME280;39844;52.496;13.482;2023-10-08T10:54:16;102380.28;;;13.27;55.59
53932;BME280;39844;52.496;13.482;2023-10-08T10:56:42;102376.78;;;13.27;55.96
53932;BME280;39844;52.496;13.482;2023-10-08T10:59:08;102381.16;;;13.28;55.69
53932;BME280;39844;52.496;13.482;2023-10-08T11:01:33;102376.78;;;13.27;54.32
53932;BME280;39844;52.496;13.482;2023-10-08T11:03:59;102378.53;;;13.28;53.61
53932;BME280;39844;52.496;13.482;2023-10-08T11:06:25;102370.69;;;13.34;55.62
53932;BME280;39844;52.496;13.482;2023-10-08T11:08:51;102370.66;;;13.31;53.53
53932;BME280;39844;52.496;13.482;2023-10-08T11:11:17;102370.63;;;13.28;51.43
53932;BME280;39844;52.496;13.482;2023-10-08T11:13:43;102368.00;;;13.29;52.21
53932;BME280;39844;52.496;13.482;2023-10-08T11:16:08;102363.69;;;13.35;52.18
53932;BME280;39844;52.496;13.482;2023-10-08T11:18:35;102359.28;;;13.37;52.99
53932;BME280;39844;52.496;13.482;2023-10-08T11:21:07;102368.06;;;13.36;50.16
53932;BME280;39844;52.496;13.482;2023-10-08T11:23:37;102364.59;;;13.40;51.47
53932;BME280;39844;52.496;13.482;2023-10-08T11:26:06;102357.59;;;13.43;50.61
53932;BME280;39844;52.496;13.482;2023-10-08T11:28:32;102356.78;;;13.47;50.85
53932;BME280;39844;52.496;13.482;2023-10-08T11:30:58;102366.50;;;13.56;52.32
53932;BME280;39844;52.496;13.482;2023-10-08T11:33:24;102369.19;;;13.57;49.83
53932;BME280;39844;52.496;13.482;2023-10-08T11:36:05;102357.78;;;13.63;48.35
53932;BME280;39844;52.496;13.482;2023-10-08T11:38:40;102376.38;;;13.73;49.81
53932;BME280;39844;52.496;13.482;2023-10-08T11:41:12;102365.91;;;13.84;49.63
53932;BME280;39844;52.496;13.482;2023-10-08T11:43:37;102360.78;;;14.04;51.33
53932;BME280;39844;52.496;13.482;2023-10-08T11:46:02;102347.03;;;14.41;50.18
53932;BME280;39844;52.496;13.482;2023-10-08T11:48:28;102353.41;;;14.79;51.99
53932;BME280;39844;52.496;13.482;2023-10-08T11:50:54;102362.38;;;15.14;52.00
53932;BME280;39844;52.496;13.482;2023-10-08T11:53:19;102351.03;;;15.52;50.87
53932;BME280;39844;52.496;13.482;2023-10-08T11:55:44;102363.41;;;15.65;46.47
53932;BME280;39844;52.496;13.482;2023-10-08T11:58:10;102356.38;;;15.79;45.50
53932;BME280;39844;52.496;13.482;2023-10-08T12:00:39;102363.47;;;16.16;47.45
53932;BME280;39844;52.496;13.482;2023-10-08T12:03:04;102354.59;;;16.35;43.03
53932;BME280;39844;52.496;13.482;2023-10-08T12:05:30;102357.22;;;16.57;46.29
53932;BME280;39844;52.496;13.482;2023-10-08T12:07:55;102358.06;;;16.83;44.74
53932;BME280;39844;52.496;13.482;2023-10-08T12:10:21;102354.34;;;17.14;44.87
53932;BME280;39844;52.496;13.482;2023-10-08T12:12:46;102362.19;;;17.40;43.72
53932;BME280;39844;52.496;13.482;2023-10-08T12:15:11;102362.09;;;17.64;43.57
53932;BME280;39844;52.496;13.482;2023-10-08T12:17:36;102362.88;;;17.72;41.16
53932;BME280;39844;52.496;13.482;2023-10-08T12:20:02;102351.19;;;17.96;43.69
53932;BME280;39844;52.496;13.482;2023-10-08T12:22:29;102354.66;;;18.05;43.52
53932;BME280;39844;52.496;13.482;2023-10-08T12:24:54;102354.63;;;18.10;42.43
53932;BME280;39844;52.496;13.482;2023-10-08T12:27:20;102343.22;;;17.96;40.07
53932;BME280;39844;52.496;13.482;2023-10-08T12:29:45;102330.81;;;17.99;41.13
53932;BME280;39844;52.496;13.482;2023-10-08T12:32:10;102330.72;;;18.05;42.34